sensor_id;sensor_type;location;lat;lon;timestamp;P1;durP1;ratioP1;P2;durP2;ratioP2
9208;SDS011;4639;48.862;9.188;2023-06-10T00:01:53;6.68;;;5.88;;
9208;SDS011;4639;48.862;9.188;2023-06-10T00:04:23;5.70;;;5.20;;
9208;SDS011;4639;48.862;9.188;2023-06-10T00:06:48;5.65;;;5.15;;
9208;SDS011;4639;48.862;9.188;2023-06-10T00:09:17;6.20;;;5.60;;
9208;SDS011;4639;48.862;9.188;2023-06-10T00:11:43;6.28;;;5.05;;
9208;SDS011;4639;48.862;9.188;2023-06-10T00:14:09;9.50;;;5.55;;
9208;SDS011;4639;48.862;9.188;2023-06-10T00:16:35;7.13;;;5.20;;
9208;SDS011;4639;48.862;9.188;2023-06-10T00:19:01;8.57;;;5.43;;
9208;SDS011;4639;48.862;9.188;2023-06-10T00:21:28;5.63;;;5.13;;
9208;SDS011;4639;48.862;9.188;2023-06-10T00:23:55;5.43;;;4.93;;
9208;SDS011;4639;48.862;9.188;2023-06-10T00:26:24;5.85;;;5.35;;
9208;SDS011;4639;48.862;9.188;2023-06-10T00:28:51;6.07;;;5.47;;
9208;SDS011;4639;48.862;9.188;2023-06-10T00:31:17;6.88;;;4.95;;
9208;SDS011;4639;48.862;9.188;2023-06-10T00:33:43;6.78;;;5.75;;
9208;SDS011;4639;48.862;9.188;2023-06-10T00:36:09;5.20;;;4.70;;
9208;SDS011;4639;48.862;9.188;2023-06-10T00:38:35;5.40;;;5.00;;
9208;SDS011;4639;48.862;9.188;2023-06-10T00:41:00;5.97;;;5.43;;
9208;SDS011;4639;48.862;9.188;2023-06-10T00:43:26;5.53;;;5.03;;
9208;SDS011;4639;48.862;9.188;2023-06-10T00:45:55;6.63;;;5.10;;
9208;SDS011;4639;48.862;9.188;2023-06-10T00:48:20;9.23;;;5.38;;
9208;SDS011;4639;48.862;9.188;2023-06-10T00:50:46;6.50;;;5.90;;
9208;SDS011;4639;48.862;9.188;2023-06-10T00:53:12;6.13;;;5.47;;
9208;SDS011;4639;48.862;9.188;2023-06-10T00:55:38;5.82;;;5.22;;
9208;SDS011;4639;48.862;9.188;2023-06-10T00:58:06;6.72;;;5.25;;
9208;SDS011;4639;48.862;9.188;2023-06-10T01:00:32;7.50;;;5.15;;
9208;SDS011;4639;48.862;9.188;2023-06-10T01:02:58;5.60;;;5.10;;
9208;SDS011;4639;48.862;9.188;2023-06-10T01:05:24;5.43;;;4.93;;
9208;SDS011;4639;48.862;9.188;2023-06-10T01:12:48;9.50;;;5.40;;
9208;SDS011;4639;48.862;9.188;2023-06-10T01:15:21;8.27;;;5.35;;
9208;SDS011;4639;48.862;9.188;2023-06-10T01:17:54;5.13;;;4.72;;
9208;SDS011;4639;48.862;9.188;2023-06-10T01:20:22;5.97;;;5.47;;
9208;SDS011;4639;48.862;9.188;2023-06-10T01:22:49;5.68;;;4.93;;
9208;SDS011;4639;48.862;9.188;2023-06-10T01:25:16;5.93;;;5.15;;
9208;SDS011;4639;48.862;9.188;2023-06-10T01:27:42;7.00;;;5.10;;
9208;SDS011;4639;48.862;9.188;2023-06-10T01:30:13;5.80;;;5.25;;
9208;SDS011;4639;48.862;9.188;2023-06-10T01:32:48;5.80;;;5.30;;
9208;SDS011;4639;48.862;9.188;2023-06-10T01:35:16;7.95;;;5.05;;
9208;SDS011;4639;48.862;9.188;2023-06-10T01:37:45;5.45;;;4.90;;
9208;SDS011;4639;48.862;9.188;2023-06-10T01:40:12;5.57;;;5.07;;
9208;SDS011;4639;48.862;9.188;2023-06-10T01:42:39;7.25;;;5.50;;
9208;SDS011;4639;48.862;9.188;2023-06-10T01:45:05;5.30;;;4.80;;
9208;SDS011;4639;48.862;9.188;2023-06-10T01:47:31;7.03;;;5.10;;
9208;SDS011;4639;48.862;9.188;2023-06-10T01:49:57;5.40;;;4.90;;
9208;SDS011;4639;48.862;9.188;2023-06-10T01:52:22;7.57;;;5.00;;
9208;SDS011;4639;48.862;9.188;2023-06-10T01:54:48;5.78;;;5.22;;
9208;SDS011;4639;48.862;9.188;2023-06-10T01:57:13;7.43;;;5.57;;
9208;SDS011;4639;48.862;9.188;2023-06-10T01:59:40;4.85;;;4.43;;
9208;SDS011;4639;48.862;9.188;2023-06-10T02:02:09;4.85;;;4.45;;
9208;SDS011;4639;48.862;9.188;2023-06-10T02:04:35;5.38;;;4.60;;
9208;SDS011;4639;48.862;9.188;2023-06-10T02:07:00;4.78;;;4.32;;
9208;SDS011;4639;48.862;9.188;2023-06-10T02:09:28;6.05;;;4.60;;
9208;SDS011;4639;48.862;9.188;2023-06-10T02:11:55;6.53;;;4.50;;
9208;SDS011;4639;48.862;9.188;2023-06-10T02:14:20;4.90;;;4.40;;
9208;SDS011;4639;48.862;9.188;2023-06-10T02:16:46;5.47;;;4.95;;
9208;SDS011;4639;48.862;9.188;2023-06-10T02:19:12;4.38;;;3.97;;
9208;SDS011;4639;48.862;9.188;2023-06-10T02:21:38;4.80;;;4.40;;
9208;SDS011;4639;48.862;9.188;2023-06-10T02:24:04;4.63;;;4.18;;
9208;SDS011;4639;48.862;9.188;2023-06-10T02:26:30;4.28;;;3.88;;
9208;SDS011;4639;48.862;9.188;2023-06-10T02:28:56;4.25;;;3.92;;
9208;SDS011;4639;48.862;9.188;2023-06-10T02:31:22;5.25;;;4.03;;
9208;SDS011;4639;48.862;9.188;2023-06-10T02:33:49;4.53;;;4.13;;
9208;SDS011;4639;48.862;9.188;2023-06-10T02:36:14;4.80;;;4.10;;
9208;SDS011;4639;48.862;9.188;2023-06-10T02:38:40;5.57;;;4.07;;
9208;SDS011;4639;48.862;9.188;2023-06-10T02:41:06;4.55;;;4.15;;
9208;SDS011;4639;48.862;9.188;2023-06-10T02:43:32;4.55;;;4.00;;
9208;SDS011;4639;48.862;9.188;2023-06-10T02:45:58;4.70;;;4.30;;
9208;SDS011;4639;48.862;9.188;2023-06-10T02:48:24;4.85;;;4.18;;
9208;SDS011;4639;48.862;9.188;2023-06-10T02:50:49;5.97;;;4.00;;
9208;SDS011;4639;48.862;9.188;2023-06-10T02:53:18;5.57;;;3.60;;
9208;SDS011;4639;48.862;9.188;2023-06-10T02:55:43;4.20;;;3.90;;
9208;SDS011;4639;48.862;9.188;2023-06-10T02:58:09;4.63;;;4.13;;
9208;SDS011;4639;48.862;9.188;2023-06-10T03:00:34;4.45;;;4.10;;
9208;SDS011;4639;48.862;9.188;2023-06-10T03:03:01;4.07;;;3.78;;
9208;SDS011;4639;48.862;9.188;2023-06-10T03:05:28;4.20;;;3.80;;
9208;SDS011;4639;48.862;9.188;2023-06-10T03:07:54;5.38;;;4.05;;
9208;SDS011;4639;48.862;9.188;2023-06-10T03:10:20;4.13;;;3.83;;
9208;SDS011;4639;48.862;9.188;2023-06-10T03:12:45;4.40;;;4.00;;
9208;SDS011;4639;48.862;9.188;2023-06-10T03:15:11;5.32;;;4.25;;
9208;SDS011;4639;48.862;9.188;2023-06-10T03:17:37;5.10;;;4.18;;
9208;SDS011;4639;48.862;9.188;2023-06-10T03:20:02;5.78;;;4.35;;
9208;SDS011;4639;48.862;9.188;2023-06-10T03:22:30;4.97;;;4.15;;
9208;SDS011;4639;48.862;9.188;2023-06-10T03:24:59;4.68;;;3.58;;
9208;SDS011;4639;48.862;9.188;2023-06-10T03:27:25;4.32;;;3.92;;
9208;SDS011;4639;48.862;9.188;2023-06-10T03:29:51;4.18;;;3.88;;
9208;SDS011;4639;48.862;9.188;2023-06-10T03:32:17;4.25;;;3.85;;
9208;SDS011;4639;48.862;9.188;2023-06-10T03:34:43;4.20;;;3.80;;
9208;SDS011;4639;48.862;9.188;2023-06-10T03:37:10;5.40;;;4.30;;
9208;SDS011;4639;48.862;9.188;2023-06-10T03:39:35;4.50;;;4.10;;
9208;SDS011;4639;48.862;9.188;2023-06-10T03:42:01;5.72;;;4.05;;
9208;SDS011;4639;48.862;9.188;2023-06-10T03:44:27;4.60;;;4.13;;
9208;SDS011;4639;48.862;9.188;2023-06-10T03:46:53;8.23;;;4.53;;
9208;SDS011;4639;48.862;9.188;2023-06-10T03:49:23;5.43;;;4.10;;
9208;SDS011;4639;48.862;9.188;2023-06-10T03:51:50;4.28;;;3.88;;
9208;SDS011;4639;48.862;9.188;2023-06-10T03:54:16;4.82;;;4.32;;
9208;SDS011;4639;48.862;9.188;2023-06-10T03:56:41;5.00;;;4.53;;
9208;SDS011;4639;48.862;9.188;2023-06-10T03:59:07;4.43;;;4.03;;
9208;SDS011;4639;48.862;9.188;2023-06-10T04:01:33;4.20;;;3.80;;
9208;SDS011;4639;48.862;9.188;2023-06-10T04:04:00;6.57;;;4.22;;
9208;SDS011;4639;48.862;9.188;2023-06-10T04:06:29;6.78;;;4.10;;
9208;SDS011;4639;48.862;9.188;2023-06-10T04:08:55;4.90;;;4.47;;
9208;SDS011;4639;48.862;9.188;2023-06-10T04:11:24;5.28;;;3.83;;
9208;SDS011;4639;48.862;9.188;2023-06-10T04:13:50;4.38;;;3.97;;
9208;SDS011;4639;48.862;9.188;2023-06-10T04:16:16;4.57;;;4.18;;
9208;SDS011;4639;48.862;9.188;2023-06-10T04:18:41;4.90;;;4.40;;
9208;SDS011;4639;48.862;9.188;2023-06-10T04:21:07;5.22;;;4.50;;
9208;SDS011;4639;48.862;9.188;2023-06-10T04:23:35;8.95;;;5.25;;
9208;SDS011;4639;48.862;9.188;2023-06-10T04:26:04;6.20;;;5.10;;
9208;SDS011;4639;48.862;9.188;2023-06-10T04:28:30;5.60;;;5.00;;
9208;SDS011;4639;48.862;9.188;2023-06-10T04:30:56;5.05;;;4.43;;
9208;SDS011;4639;48.862;9.188;2023-06-10T04:33:22;4.75;;;4.35;;
9208;SDS011;4639;48.862;9.188;2023-06-10T04:35:49;4.72;;;4.32;;
9208;SDS011;4639;48.862;9.188;2023-06-10T04:38:15;4.65;;;4.25;;
9208;SDS011;4639;48.862;9.188;2023-06-10T04:40:40;4.53;;;4.13;;
9208;SDS011;4639;48.862;9.188;2023-06-10T04:43:08;4.88;;;4.38;;
9208;SDS011;4639;48.862;9.188;2023-06-10T04:45:42;4.72;;;4.32;;
9208;SDS011;4639;48.862;9.188;2023-06-10T04:48:11;5.40;;;4.90;;
9208;SDS011;4639;48.862;9.188;2023-06-10T04:50:37;4.40;;;4.00;;
9208;SDS011;4639;48.862;9.188;2023-06-10T04:53:02;4.97;;;4.10;;
9208;SDS011;4639;48.862;9.188;2023-06-10T04:55:28;4.72;;;4.32;;
9208;SDS011;4639;48.862;9.188;2023-06-10T04:57:54;4.80;;;4.18;;
9208;SDS011;4639;48.862;9.188;2023-06-10T05:00:20;4.88;;;4.47;;
9208;SDS011;4639;48.862;9.188;2023-06-10T05:02:45;5.15;;;4.43;;
9208;SDS011;4639;48.862;9.188;2023-06-10T05:05:16;4.70;;;4.07;;
9208;SDS011;4639;48.862;9.188;2023-06-10T05:07:42;4.57;;;4.18;;
9208;SDS011;4639;48.862;9.188;2023-06-10T05:10:07;6.82;;;4.40;;
9208;SDS011;4639;48.862;9.188;2023-06-10T05:12:33;4.78;;;4.25;;
9208;SDS011;4639;48.862;9.188;2023-06-10T05:14:59;5.60;;;3.88;;
9208;SDS011;4639;48.862;9.188;2023-06-10T05:17:24;4.75;;;4.28;;
9208;SDS011;4639;48.862;9.188;2023-06-10T05:19:50;4.90;;;4.40;;
9208;SDS011;4639;48.862;9.188;2023-06-10T05:22:16;4.20;;;3.80;;
9208;SDS011;4639;48.862;9.188;2023-06-10T05:24:43;4.80;;;4.30;;
9208;SDS011;4639;48.862;9.188;2023-06-10T05:27:09;5.38;;;4.07;;
9208;SDS011;4639;48.862;9.188;2023-06-10T05:29:35;4.57;;;3.80;;
9208;SDS011;4639;48.862;9.188;2023-06-10T05:32:01;4.55;;;4.03;;
9208;SDS011;4639;48.862;9.188;2023-06-10T05:34:33;4.72;;;4.30;;
9208;SDS011;4639;48.862;9.188;2023-06-10T05:36:59;4.57;;;4.18;;
9208;SDS011;4639;48.862;9.188;2023-06-10T05:39:25;6.07;;;4.40;;
9208;SDS011;4639;48.862;9.188;2023-06-10T05:41:50;4.05;;;3.75;;
9208;SDS011;4639;48.862;9.188;2023-06-10T05:44:16;4.95;;;4.55;;
9208;SDS011;4639;48.862;9.188;2023-06-10T05:46:41;6.05;;;4.38;;
9208;SDS011;4639;48.862;9.188;2023-06-10T05:49:07;4.53;;;4.13;;
9208;SDS011;4639;48.862;9.188;2023-06-10T05:51:32;4.88;;;3.50;;
9208;SDS011;4639;48.862;9.188;2023-06-10T05:54:01;4.30;;;3.97;;
9208;SDS011;4639;48.862;9.188;2023-06-10T05:56:27;4.53;;;4.13;;
9208;SDS011;4639;48.862;9.188;2023-06-10T05:58:52;4.90;;;4.18;;
9208;SDS011;4639;48.862;9.188;2023-06-10T06:01:18;4.30;;;3.90;;
9208;SDS011;4639;48.862;9.188;2023-06-10T06:03:47;4.28;;;3.88;;
9208;SDS011;4639;48.862;9.188;2023-06-10T06:06:12;4.93;;;3.85;;
9208;SDS011;4639;48.862;9.188;2023-06-10T06:08:38;5.10;;;4.68;;
9208;SDS011;4639;48.862;9.188;2023-06-10T06:11:03;4.80;;;4.40;;
9208;SDS011;4639;48.862;9.188;2023-06-10T06:13:29;5.03;;;4.53;;
9208;SDS011;4639;48.862;9.188;2023-06-10T06:15:54;4.60;;;4.03;;
9208;SDS011;4639;48.862;9.188;2023-06-10T06:18:20;4.82;;;4.43;;
9208;SDS011;4639;48.862;9.188;2023-06-10T06:20:48;4.75;;;4.13;;
9208;SDS011;4639;48.862;9.188;2023-06-10T06:23:14;4.75;;;4.35;;
9208;SDS011;4639;48.862;9.188;2023-06-10T06:25:40;4.32;;;4.03;;
9208;SDS011;4639;48.862;9.188;2023-06-10T06:28:06;6.47;;;4.43;;
9208;SDS011;4639;48.862;9.188;2023-06-10T06:30:32;5.10;;;4.70;;
9208;SDS011;4639;48.862;9.188;2023-06-10T06:32:58;4.85;;;4.45;;
9208;SDS011;4639;48.862;9.188;2023-06-10T06:35:24;4.88;;;4.47;;
9208;SDS011;4639;48.862;9.188;2023-06-10T06:37:49;5.30;;;4.30;;
9208;SDS011;4639;48.862;9.188;2023-06-10T06:40:15;4.75;;;4.32;;
9208;SDS011;4639;48.862;9.188;2023-06-10T06:42:40;4.65;;;4.25;;
9208;SDS011;4639;48.862;9.188;2023-06-10T06:45:06;4.80;;;4.40;;
9208;SDS011;4639;48.862;9.188;2023-06-10T06:47:32;4.60;;;4.20;;
9208;SDS011;4639;48.862;9.188;2023-06-10T06:49:57;5.70;;;4.40;;
9208;SDS011;4639;48.862;9.188;2023-06-10T06:52:23;5.15;;;4.75;;
9208;SDS011;4639;48.862;9.188;2023-06-10T06:54:49;4.85;;;4.32;;
9208;SDS011;4639;48.862;9.188;2023-06-10T06:57:14;4.65;;;4.25;;
9208;SDS011;4639;48.862;9.188;2023-06-10T06:59:43;4.40;;;4.00;;
9208;SDS011;4639;48.862;9.188;2023-06-10T07:02:08;4.93;;;4.45;;
9208;SDS011;4639;48.862;9.188;2023-06-10T07:04:34;4.53;;;4.20;;
9208;SDS011;4639;48.862;9.188;2023-06-10T07:07:00;6.93;;;4.40;;
9208;SDS011;4639;48.862;9.188;2023-06-10T07:09:25;4.70;;;4.30;;
9208;SDS011;4639;48.862;9.188;2023-06-10T07:11:51;6.00;;;4.47;;
9208;SDS011;4639;48.862;9.188;2023-06-10T07:14:16;4.80;;;4.30;;
9208;SDS011;4639;48.862;9.188;2023-06-10T07:16:45;6.63;;;4.80;;
9208;SDS011;4639;48.862;9.188;2023-06-10T07:19:11;4.75;;;4.35;;
9208;SDS011;4639;48.862;9.188;2023-06-10T07:21:36;4.57;;;4.18;;
9208;SDS011;4639;48.862;9.188;2023-06-10T07:24:02;4.82;;;4.43;;
9208;SDS011;4639;48.862;9.188;2023-06-10T07:26:28;4.70;;;4.30;;
9208;SDS011;4639;48.862;9.188;2023-06-10T07:28:54;4.90;;;4.32;;
9208;SDS011;4639;48.862;9.188;2023-06-10T07:31:20;9.50;;;4.20;;
9208;SDS011;4639;48.862;9.188;2023-06-10T07:33:48;5.57;;;4.78;;
9208;SDS011;4639;48.862;9.188;2023-06-10T07:36:14;4.82;;;4.35;;
9208;SDS011;4639;48.862;9.188;2023-06-10T07:38:39;4.60;;;4.20;;
9208;SDS011;4639;48.862;9.188;2023-06-10T07:41:07;4.38;;;3.97;;
9208;SDS011;4639;48.862;9.188;2023-06-10T07:43:33;4.68;;;4.03;;
9208;SDS011;4639;48.862;9.188;2023-06-10T07:45:58;4.38;;;3.97;;
9208;SDS011;4639;48.862;9.188;2023-06-10T07:48:24;4.97;;;4.35;;
9208;SDS011;4639;48.862;9.188;2023-06-10T07:50:51;4.28;;;3.88;;
9208;SDS011;4639;48.862;9.188;2023-06-10T07:53:17;4.68;;;4.28;;
9208;SDS011;4639;48.862;9.188;2023-06-10T07:55:42;6.22;;;4.50;;
9208;SDS011;4639;48.862;9.188;2023-06-10T07:58:08;4.68;;;4.28;;
9208;SDS011;4639;48.862;9.188;2023-06-10T08:00:33;5.18;;;4.45;;
9208;SDS011;4639;48.862;9.188;2023-06-10T08:02:59;7.38;;;3.97;;
9208;SDS011;4639;48.862;9.188;2023-06-10T08:05:25;4.93;;;4.43;;
9208;SDS011;4639;48.862;9.188;2023-06-10T08:07:51;4.03;;;3.72;;
9208;SDS011;4639;48.862;9.188;2023-06-10T08:10:16;4.70;;;4.25;;
9208;SDS011;4639;48.862;9.188;2023-06-10T08:12:42;5.60;;;4.10;;
9208;SDS011;4639;48.862;9.188;2023-06-10T08:15:08;6.03;;;4.53;;
9208;SDS011;4639;48.862;9.188;2023-06-10T08:17:33;4.32;;;3.92;;
9208;SDS011;4639;48.862;9.188;2023-06-10T08:20:00;5.07;;;4.57;;
9208;SDS011;4639;48.862;9.188;2023-06-10T08:22:26;8.30;;;4.80;;
9208;SDS011;4639;48.862;9.188;2023-06-10T08:24:51;5.00;;;4.57;;
9208;SDS011;4639;48.862;9.188;2023-06-10T08:27:17;7.60;;;4.60;;
9208;SDS011;4639;48.862;9.188;2023-06-10T08:29:42;4.60;;;4.20;;
9208;SDS011;4639;48.862;9.188;2023-06-10T08:32:08;4.90;;;4.35;;
9208;SDS011;4639;48.862;9.188;2023-06-10T08:34:34;4.35;;;4.05;;
9208;SDS011;4639;48.862;9.188;2023-06-10T08:37:00;4.50;;;4.10;;
9208;SDS011;4639;48.862;9.188;2023-06-10T08:39:32;4.65;;;4.18;;
9208;SDS011;4639;48.862;9.188;2023-06-10T08:42:00;5.38;;;4.25;;
9208;SDS011;4639;48.862;9.188;2023-06-10T08:44:31;5.65;;;4.45;;
9208;SDS011;4639;48.862;9.188;2023-06-10T08:47:01;6.00;;;4.25;;
9208;SDS011;4639;48.862;9.188;2023-06-10T08:49:33;3.95;;;3.65;;
9208;SDS011;4639;48.862;9.188;2023-06-10T08:52:06;4.38;;;3.97;;
9208;SDS011;4639;48.862;9.188;2023-06-10T08:54:33;4.20;;;3.88;;
9208;SDS011;4639;48.862;9.188;2023-06-10T08:57:02;4.88;;;3.95;;
9208;SDS011;4639;48.862;9.188;2023-06-10T08:59:31;4.47;;;4.07;;
9208;SDS011;4639;48.862;9.188;2023-06-10T09:01:56;4.93;;;3.90;;
9208;SDS011;4639;48.862;9.188;2023-06-10T09:04:23;4.32;;;3.92;;
9208;SDS011;4639;48.862;9.188;2023-06-10T09:06:49;5.05;;;3.65;;
9208;SDS011;4639;48.862;9.188;2023-06-10T09:09:17;4.75;;;3.70;;
9208;SDS011;4639;48.862;9.188;2023-06-10T09:11:45;4.38;;;3.97;;
9208;SDS011;4639;48.862;9.188;2023-06-10T09:14:10;7.07;;;3.80;;
9208;SDS011;4639;48.862;9.188;2023-06-10T09:16:38;4.30;;;3.90;;
9208;SDS011;4639;48.862;9.188;2023-06-10T09:19:04;4.10;;;3.67;;
9208;SDS011;4639;48.862;9.188;2023-06-10T09:21:33;5.47;;;3.75;;
9208;SDS011;4639;48.862;9.188;2023-06-10T09:23:59;3.95;;;3.65;;
9208;SDS011;4639;48.862;9.188;2023-06-10T09:26:28;4.18;;;3.78;;
9208;SDS011;4639;48.862;9.188;2023-06-10T09:29:03;3.63;;;3.30;;
9208;SDS011;4639;48.862;9.188;2023-06-10T09:31:30;4.65;;;4.13;;
9208;SDS011;4639;48.862;9.188;2023-06-10T09:34:12;5.43;;;3.72;;
9208;SDS011;4639;48.862;9.188;2023-06-10T09:36:39;3.95;;;3.63;;
9208;SDS011;4639;48.862;9.188;2023-06-10T09:39:05;5.97;;;3.95;;
9208;SDS011;4639;48.862;9.188;2023-06-10T09:41:42;4.47;;;4.07;;
9208;SDS011;4639;48.862;9.188;2023-06-10T09:44:16;4.80;;;3.40;;
9208;SDS011;4639;48.862;9.188;2023-06-10T09:46:46;4.97;;;3.70;;
9208;SDS011;4639;48.862;9.188;2023-06-10T09:49:14;9.07;;;3.92;;
9208;SDS011;4639;48.862;9.188;2023-06-10T09:51:50;4.28;;;3.88;;
9208;SDS011;4639;48.862;9.188;2023-06-10T09:54:17;4.25;;;3.95;;
9208;SDS011;4639;48.862;9.188;2023-06-10T09:56:43;4.22;;;3.80;;
9208;SDS011;4639;48.862;9.188;2023-06-10T09:59:16;4.03;;;3.53;;
9208;SDS011;4639;48.862;9.188;2023-06-10T10:01:55;3.95;;;3.50;;
9208;SDS011;4639;48.862;9.188;2023-06-10T10:04:24;4.97;;;3.80;;
9208;SDS011;4639;48.862;9.188;2023-06-10T10:06:50;4.13;;;3.65;;
9208;SDS011;4639;48.862;9.188;2023-06-10T10:09:16;5.05;;;3.85;;
9208;SDS011;4639;48.862;9.188;2023-06-10T10:11:41;3.80;;;3.50;;
9208;SDS011;4639;48.862;9.188;2023-06-10T10:14:08;3.83;;;3.53;;
9208;SDS011;4639;48.862;9.188;2023-06-10T10:16:40;3.33;;;3.03;;
9208;SDS011;4639;48.862;9.188;2023-06-10T10:19:16;3.88;;;3.30;;
9208;SDS011;4639;48.862;9.188;2023-06-10T10:21:50;6.05;;;3.83;;
9208;SDS011;4639;48.862;9.188;2023-06-10T10:24:20;4.53;;;3.22;;
9208;SDS011;4639;48.862;9.188;2023-06-10T10:26:48;4.20;;;3.80;;
9208;SDS011;4639;48.862;9.188;2023-06-10T10:29:30;4.53;;;3.58;;
9208;SDS011;4639;48.862;9.188;2023-06-10T10:32:03;5.20;;;3.90;;
9208;SDS011;4639;48.862;9.188;2023-06-10T10:34:37;4.13;;;3.72;;
9208;SDS011;4639;48.862;9.188;2023-06-10T10:37:10;3.78;;;3.40;;
9208;SDS011;4639;48.862;9.188;2023-06-10T10:39:35;4.10;;;3.70;;
9208;SDS011;4639;48.862;9.188;2023-06-10T10:42:01;7.30;;;3.92;;
9208;SDS011;4639;48.862;9.188;2023-06-10T10:44:29;4.55;;;3.50;;
9208;SDS011;4639;48.862;9.188;2023-06-10T10:46:56;3.53;;;3.22;;
9208;SDS011;4639;48.862;9.188;2023-06-10T10:49:27;4.18;;;3.78;;
9208;SDS011;4639;48.862;9.188;2023-06-10T10:52:00;5.25;;;3.38;;
9208;SDS011;4639;48.862;9.188;2023-06-10T10:54:33;4.80;;;3.55;;
9208;SDS011;4639;48.862;9.188;2023-06-10T10:57:10;5.28;;;3.70;;
9208;SDS011;4639;48.862;9.188;2023-06-10T11:02:15;3.47;;;3.20;;
9208;SDS011;4639;48.862;9.188;2023-06-10T11:04:48;3.38;;;3.08;;
9208;SDS011;4639;48.862;9.188;2023-06-10T11:07:14;4.53;;;3.08;;
9208;SDS011;4639;48.862;9.188;2023-06-10T11:15:11;4.55;;;3.30;;
9208;SDS011;4639;48.862;9.188;2023-06-10T11:17:37;3.67;;;3.38;;
9208;SDS011;4639;48.862;9.188;2023-06-10T11:28:42;3.60;;;3.30;;
9208;SDS011;4639;48.862;9.188;2023-06-10T11:31:31;4.03;;;3.17;;
9208;SDS011;4639;48.862;9.188;2023-06-10T11:34:05;4.63;;;3.30;;
9208;SDS011;4639;48.862;9.188;2023-06-10T11:36:41;3.47;;;3.10;;
9208;SDS011;4639;48.862;9.188;2023-06-10T11:39:10;3.60;;;3.30;;
9208;SDS011;4639;48.862;9.188;2023-06-10T11:41:36;4.32;;;2.85;;
9208;SDS011;4639;48.862;9.188;2023-06-10T11:44:04;4.97;;;3.10;;
9208;SDS011;4639;48.862;9.188;2023-06-10T11:46:36;4.72;;;3.22;;
9208;SDS011;4639;48.862;9.188;2023-06-10T11:49:03;5.75;;;3.20;;
9208;SDS011;4639;48.862;9.188;2023-06-10T11:51:34;3.78;;;3.35;;
9208;SDS011;4639;48.862;9.188;2023-06-10T11:54:01;3.85;;;3.22;;
9208;SDS011;4639;48.862;9.188;2023-06-10T11:56:27;3.33;;;3.03;;
9208;SDS011;4639;48.862;9.188;2023-06-10T12:01:21;3.60;;;3.13;;
9208;SDS011;4639;48.862;9.188;2023-06-10T12:06:21;3.65;;;3.30;;
9208;SDS011;4639;48.862;9.188;2023-06-10T12:08:46;3.28;;;3.05;;
9208;SDS011;4639;48.862;9.188;2023-06-10T12:11:12;3.53;;;3.20;;
9208;SDS011;4639;48.862;9.188;2023-06-10T12:13:37;5.13;;;3.10;;
9208;SDS011;4639;48.862;9.188;2023-06-10T12:16:13;4.53;;;3.10;;
9208;SDS011;4639;48.862;9.188;2023-06-10T12:18:39;3.60;;;3.22;;
9208;SDS011;4639;48.862;9.188;2023-06-10T12:21:19;5.00;;;3.00;;
9208;SDS011;4639;48.862;9.188;2023-06-10T12:26:38;4.20;;;3.10;;
9208;SDS011;4639;48.862;9.188;2023-06-10T12:29:21;3.28;;;2.97;;
9208;SDS011;4639;48.862;9.188;2023-06-10T12:31:56;3.22;;;2.92;;
9208;SDS011;4639;48.862;9.188;2023-06-10T12:34:30;3.33;;;3.00;;
9208;SDS011;4639;48.862;9.188;2023-06-10T12:36:56;4.25;;;2.97;;
9208;SDS011;4639;48.862;9.188;2023-06-10T12:39:22;3.28;;;2.58;;
9208;SDS011;4639;48.862;9.188;2023-06-10T12:41:51;3.20;;;2.90;;
9208;SDS011;4639;48.862;9.188;2023-06-10T12:44:17;4.05;;;3.25;;
9208;SDS011;4639;48.862;9.188;2023-06-10T12:46:43;3.33;;;2.75;;
9208;SDS011;4639;48.862;9.188;2023-06-10T12:49:18;3.10;;;2.75;;
9208;SDS011;4639;48.862;9.188;2023-06-10T12:51:45;6.78;;;2.95;;
9208;SDS011;4639;48.862;9.188;2023-06-10T12:54:11;2.88;;;2.65;;
9208;SDS011;4639;48.862;9.188;2023-06-10T12:56:37;5.25;;;3.20;;
9208;SDS011;4639;48.862;9.188;2023-06-10T12:59:03;3.05;;;2.85;;
9208;SDS011;4639;48.862;9.188;2023-06-10T13:01:28;3.88;;;2.60;;
9208;SDS011;4639;48.862;9.188;2023-06-10T13:03:56;2.90;;;2.70;;
9208;SDS011;4639;48.862;9.188;2023-06-10T13:06:22;5.22;;;2.90;;
9208;SDS011;4639;48.862;9.188;2023-06-10T13:08:48;4.32;;;3.05;;
9208;SDS011;4639;48.862;9.188;2023-06-10T13:11:13;4.50;;;2.90;;
9208;SDS011;4639;48.862;9.188;2023-06-10T13:13:39;2.88;;;2.65;;
9208;SDS011;4639;48.862;9.188;2023-06-10T13:16:05;2.88;;;2.58;;
9208;SDS011;4639;48.862;9.188;2023-06-10T13:18:33;3.00;;;2.53;;
9208;SDS011;4639;48.862;9.188;2023-06-10T13:21:02;9.20;;;2.70;;
9208;SDS011;4639;48.862;9.188;2023-06-10T13:23:29;4.20;;;2.95;;
9208;SDS011;4639;48.862;9.188;2023-06-10T13:25:56;2.88;;;2.67;;
9208;SDS011;4639;48.862;9.188;2023-06-10T13:28:22;4.10;;;2.55;;
9208;SDS011;4639;48.862;9.188;2023-06-10T13:30:47;3.90;;;2.58;;
9208;SDS011;4639;48.862;9.188;2023-06-10T13:33:13;2.75;;;2.55;;
9208;SDS011;4639;48.862;9.188;2023-06-10T13:35:38;3.95;;;2.70;;
9208;SDS011;4639;48.862;9.188;2023-06-10T13:38:04;3.10;;;2.60;;
9208;SDS011;4639;48.862;9.188;2023-06-10T13:40:32;3.67;;;2.60;;
9208;SDS011;4639;48.862;9.188;2023-06-10T13:42:58;3.00;;;2.80;;
9208;SDS011;4639;48.862;9.188;2023-06-10T13:45:26;2.72;;;2.53;;
9208;SDS011;4639;48.862;9.188;2023-06-10T13:47:53;2.85;;;2.60;;
9208;SDS011;4639;48.862;9.188;2023-06-10T13:50:18;4.70;;;2.67;;
9208;SDS011;4639;48.862;9.188;2023-06-10T13:52:44;3.78;;;2.83;;
9208;SDS011;4639;48.862;9.188;2023-06-10T13:55:09;2.97;;;2.67;;
9208;SDS011;4639;48.862;9.188;2023-06-10T13:57:38;2.92;;;2.72;;
9208;SDS011;4639;48.862;9.188;2023-06-10T14:00:03;3.63;;;2.80;;
9208;SDS011;4639;48.862;9.188;2023-06-10T14:02:30;3.60;;;2.58;;
9208;SDS011;4639;48.862;9.188;2023-06-10T14:04:56;3.05;;;2.85;;
9208;SDS011;4639;48.862;9.188;2023-06-10T14:07:21;4.15;;;2.80;;
9208;SDS011;4639;48.862;9.188;2023-06-10T14:09:47;4.57;;;2.58;;
9208;SDS011;4639;48.862;9.188;2023-06-10T14:12:12;4.60;;;2.80;;
9208;SDS011;4639;48.862;9.188;2023-06-10T14:14:41;5.00;;;2.60;;
9208;SDS011;4639;48.862;9.188;2023-06-10T14:17:06;5.32;;;2.78;;
9208;SDS011;4639;48.862;9.188;2023-06-10T14:19:32;3.00;;;2.80;;
9208;SDS011;4639;48.862;9.188;2023-06-10T14:21:57;3.30;;;3.00;;
9208;SDS011;4639;48.862;9.188;2023-06-10T14:24:23;3.00;;;2.70;;
9208;SDS011;4639;48.862;9.188;2023-06-10T14:26:48;4.35;;;3.13;;
9208;SDS011;4639;48.862;9.188;2023-06-10T14:29:14;2.80;;;2.60;;
9208;SDS011;4639;48.862;9.188;2023-06-10T14:31:40;2.92;;;2.72;;
9208;SDS011;4639;48.862;9.188;2023-06-10T14:34:06;4.47;;;3.33;;
9208;SDS011;4639;48.862;9.188;2023-06-10T14:36:36;3.22;;;2.92;;
9208;SDS011;4639;48.862;9.188;2023-06-10T14:39:02;4.35;;;2.90;;
9208;SDS011;4639;48.862;9.188;2023-06-10T14:41:27;3.85;;;2.60;;
9208;SDS011;4639;48.862;9.188;2023-06-10T14:43:53;3.25;;;2.92;;
9208;SDS011;4639;48.862;9.188;2023-06-10T14:46:18;3.67;;;2.40;;
9208;SDS011;4639;48.862;9.188;2023-06-10T14:48:46;2.97;;;2.63;;
9208;SDS011;4639;48.862;9.188;2023-06-10T14:51:11;3.92;;;2.97;;
9208;SDS011;4639;48.862;9.188;2023-06-10T14:53:39;3.30;;;3.00;;
9208;SDS011;4639;48.862;9.188;2023-06-10T14:56:05;5.53;;;2.75;;
9208;SDS011;4639;48.862;9.188;2023-06-10T14:58:30;2.95;;;2.75;;
9208;SDS011;4639;48.862;9.188;2023-06-10T15:00:56;3.30;;;2.85;;
9208;SDS011;4639;48.862;9.188;2023-06-10T15:03:21;3.40;;;2.97;;
9208;SDS011;4639;48.862;9.188;2023-06-10T15:05:47;3.03;;;2.83;;
9208;SDS011;4639;48.862;9.188;2023-06-10T15:08:13;2.72;;;2.53;;
9208;SDS011;4639;48.862;9.188;2023-06-10T15:10:38;4.20;;;2.70;;
9208;SDS011;4639;48.862;9.188;2023-06-10T15:13:04;4.78;;;2.45;;
9208;SDS011;4639;48.862;9.188;2023-06-10T15:15:30;3.78;;;2.60;;
9208;SDS011;4639;48.862;9.188;2023-06-10T15:17:55;3.00;;;2.80;;
9208;SDS011;4639;48.862;9.188;2023-06-10T15:20:21;2.95;;;2.60;;
9208;SDS011;4639;48.862;9.188;2023-06-10T15:22:46;2.90;;;2.55;;
9208;SDS011;4639;48.862;9.188;2023-06-10T15:25:12;3.10;;;2.80;;
9208;SDS011;4639;48.862;9.188;2023-06-10T15:27:38;4.00;;;3.20;;
9208;SDS011;4639;48.862;9.188;2023-06-10T15:30:04;2.92;;;2.72;;
9208;SDS011;4639;48.862;9.188;2023-06-10T15:32:32;3.40;;;3.10;;
9208;SDS011;4639;48.862;9.188;2023-06-10T15:34:57;3.15;;;2.85;;
9208;SDS011;4639;48.862;9.188;2023-06-10T15:37:23;4.55;;;2.88;;
9208;SDS011;4639;48.862;9.188;2023-06-10T15:39:49;4.00;;;3.00;;
9208;SDS011;4639;48.862;9.188;2023-06-10T15:42:14;3.10;;;2.83;;
9208;SDS011;4639;48.862;9.188;2023-06-10T15:44:40;3.13;;;2.83;;